Main page
METAR-TAF:

METAR-TAF

Airports :

Nouakchott, Mauritania

Nouakchott–Oumtounsy International Airport

latitude: 18-18-36N, longitude: 015-58-11W, elevation: 3 m

Current weather observation

The report was made 18 minutes ago, at 07:00 UTC
Wind 12 kt from the North
Temperature 18°C
Humidity 59%
Pressure 1013 hPa
Visibility: 8000 m

METAR: GQNO 230700Z 36012KT 8000 NSC 18/10 Q1013 NOSIG

Time: 07:18 (07:18 UTC)

Forecast

The report was made 2 hours and 18 minutes ago, at 05:00 UTC
Forecast valid from 23 at 06 UTC to 24 at 12 UTC
Wind 10 kt from the North/Northwest
Visibility: 8000 m
Becoming
from 23 at 07 UTC to 23 at 10 UTC
Wind 12 kt from the Northeast
Becoming
from 23 at 12 UTC to 23 at 14 UTC
Wind 14 kt from the North/Northwest
Becoming
from 24 at 07 UTC to 24 at 10 UTC
Wind 14 kt from the Northeast

TAF: GQNO 230500Z 2306/2412 34010KT 8000 NSC BECMG 2307/2310 04012KT BECMG 2312/2314 33014KT BECMG 2407/2410 05014KT

Weather observations and forecasts of more than 4000 airports (METAR and TAF reports).

The available stations are represented by yellow and red dots on the map.

Hover mouse over dot to see the name of the station.

Then click to see weather observations and forecasts.

To change the map : click on the green buttons with a black cross to zoom in, on the green button with a dash to zoom out, or on the green arrows for adjacent maps.


METAR-TAF: